Libagon, Philippines
Current Conditions -  °F | °C
As of 2:00 AM on Tuesday 21 Oct 2014 (Local Time) from RPVM Reporting Station
Scattered Clouds Scattered Clouds  
Wind Chill: 79°   Ceiling: Unl
Heat Index: 82°   Visibility: 6mi
Dew Point: 75°   Wind: 1mph
Humidity: 89%   Direction: NA
Pressure: 29.85"   Gusts: NA
Location:  10.3°N, 125.06°E
Report Text: RPVM 201800Z VRB01KT 9999 FEW018CB SCT300 26/24 Q1011 RMK A2985 OCCNL DSTNT LGTNG NW
Loading
Personal Weather Stations






























Interactive Weather Map
Tropical Storm Tracking
New forecast layout! Learn more

10-Day Weather Forecast

Advertisements
Track Severe Weather on mobile